Аэропорт: Национальный аэропорт Минск. Минск

ICAO: UMMS

METAR:
2019/03/26 13:00
UMMS 261300Z 28005MPS 240V330 9999 SCT048 BKN200 04/M07 Q1009 R31/CLRD// NOSIG
METAR:
2019/03/26 12:21
TAF TAF UMMS 261109Z 2612/2712 27006G11MPS 9999 BKN015 TX04/2612Z TNM01/2706Z 
      TEMPO 2612/2614 25009G14MPS 
      BECMG 2614/2615 22005G10MPS 
      TEMPO 2615/2703 24009G14MPS 0500 +SHRASN BKN003 BKN010CB PROB40 
      TEMPO 2615/2619 -TSRA BKN010CB 
      BECMG 2703/2705 30006G11MPS